Time;durP1;ratioP1;P1;durP2;ratioP2;P2;SDS_P1;SDS_P2;PMS_P1;PMS_P2;Temp;Humidity;BMP_temperature;BMP_pressure;BME280_temperature;BME280_humidity;BME280_pressure;Samples;Min_cycle;Max_cycle;Signal;HPM_P1;HPM_P2
2022/08/11 00:00:13;;;;;;;9.60;8.70;;;;;;;15.91;60.94;101351.31;109993;1259;22028;-78
2022/08/11 00:03:08;;;;;;;10.80;8.60;;;;;;;15.86;61.04;101353.34;110062;1259;21965;-78
2022/08/11 00:05:54;;;;;;;9.40;7.80;;;;;;;15.82;61.20;101352.12;110139;1258;23604;-78
2022/08/11 00:08:27;;;;;;;10.60;8.20;;;;;;;15.79;61.41;101349.11;109329;1264;22436;-79
2022/08/11 00:11:05;;;;;;;9.00;8.10;;;;;;;15.76;61.62;101348.56;109445;1264;22022;-79
2022/08/11 00:13:44;;;;;;;11.10;8.70;;;;;;;15.74;61.76;101348.32;109932;1258;23578;-78
2022/08/11 00:16:17;;;;;;;12.90;8.30;;;;;;;15.71;61.96;101350.23;110137;1259;21966;-79
2022/08/11 00:18:53;;;;;;;11.20;8.40;;;;;;;15.69;62.02;101348.91;110126;1257;23670;-79
2022/08/11 00:21:26;;;;;;;15.20;10.70;;;;;;;15.66;62.11;101348.31;109315;1264;22110;-78
2022/08/11 00:24:21;;;;;;;11.20;9.70;;;;;;;15.61;62.14;101354.79;109293;1263;23149;-78
2022/08/11 00:26:53;;;;;;;15.50;10.30;;;;;;;15.52;62.22;101353.81;109881;1258;23785;-78
2022/08/11 00:29:23;;;;;;;14.60;11.20;;;;;;;15.46;62.46;101349.17;109851;1258;22212;-78
2022/08/11 00:31:57;;;;;;;11.90;10.70;;;;;;;15.44;62.82;101344.65;109213;1264;21979;-79
2022/08/11 00:34:31;;;;;;;13.50;10.40;;;;;;;15.44;63.06;101342.85;109031;1267;23762;-77
2022/08/11 00:37:10;;;;;;;13.80;12.40;;;;;;;15.44;63.00;101345.64;109150;1267;22091;-78
2022/08/11 00:39:48;;;;;;;17.40;15.60;;;;;;;15.41;62.93;101345.63;109223;1264;23788;-76
2022/08/11 00:43:06;;;;;;;14.10;12.80;;;;;;;15.39;63.07;101346.98;108856;1270;22004;-79
2022/08/11 00:46:04;;;;;;;14.50;13.00;;;;;;;15.33;63.28;101343.55;108864;1270;21974;-78
2022/08/11 00:49:29;;;;;;;15.40;12.30;;;;;;;15.30;63.46;101339.30;108863;1273;22000;-78
2022/08/11 00:52:29;;;;;;;12.60;10.90;;;;;;;15.26;63.52;101341.55;108283;1279;22117;-77
2022/08/11 00:55:34;;;;;;;10.50;8.60;;;;;;;15.23;63.54;101339.73;108378;1278;23142;-78
2022/08/11 00:58:43;;;;;;;7.40;6.70;;;;;;;15.19;63.58;101343.67;108421;1279;21985;-78
2022/08/11 01:02:24;;;;;;;10.80;7.10;;;;;;;15.16;63.58;101346.39;108507;1273;23740;-78
2022/08/11 01:05:23;;;;;;;11.20;6.70;;;;;;;15.09;63.61;101346.79;108529;1279;22322;-78
2022/08/11 01:08:35;;;;;;;8.40;6.70;;;;;;;15.07;63.71;101346.50;108366;1279;23108;-76
2022/08/11 01:11:45;;;;;;;10.10;6.20;;;;;;;15.04;63.87;101348.73;108569;1276;22790;-77
2022/08/11 01:14:39;;;;;;;7.60;6.00;;;;;;;15.00;64.12;101344.06;108715;1273;21992;-78
2022/08/11 01:17:48;;;;;;;10.60;6.00;;;;;;;14.99;64.24;101344.06;108871;1270;22519;-77
2022/08/11 01:20:36;;;;;;;10.10;5.80;;;;;;;14.96;64.34;101351.30;109122;1267;21962;-77
2022/08/11 01:23:57;;;;;;;8.80;6.20;;;;;;;14.92;64.34;101352.44;109131;1267;21990;-77
2022/08/11 01:26:54;;;;;;;9.60;6.30;;;;;;;14.87;64.49;101353.73;109200;1267;21992;-76
2022/08/11 01:30:16;;;;;;;10.40;6.50;;;;;;;14.82;64.62;101354.11;109574;1260;23114;-77
2022/08/11 01:33:21;;;;;;;7.90;5.90;;;;;;;14.77;64.57;101353.52;110056;1259;23077;-77
2022/08/11 01:36:34;;;;;;;9.20;6.20;;;;;;;14.73;64.81;101353.54;110083;1257;23114;-76
2022/08/11 01:39:32;;;;;;;9.10;5.90;;;;;;;14.69;64.96;101353.75;108878;1270;22042;-76
2022/08/11 01:45:49;;;;;;;12.70;5.90;;;;;;;14.61;65.18;101349.21;108901;1270;23876;-77
2022/08/11 01:48:35;;;;;;;7.80;5.50;;;;;;;14.57;65.22;101346.59;108625;1275;22458;-77
2022/08/11 01:51:34;;;;;;;7.70;6.00;;;;;;;14.56;65.35;101348.85;108431;1276;22056;-77
2022/08/11 01:54:20;;;;;;;9.60;6.10;;;;;;;14.54;65.47;101347.75;108607;1270;21980;-77
2022/08/11 01:57:41;;;;;;;9.70;6.30;;;;;;;14.52;65.48;101348.38;109025;1263;21982;-76
2022/08/11 02:00:27;;;;;;;8.30;5.90;;;;;;;14.48;65.59;101349.20;109504;1264;21991;-77
2022/08/11 02:03:26;;;;;;;9.00;5.70;;;;;;;14.45;65.65;101349.34;109241;1264;21976;-76
2022/08/11 02:06:56;;;;;;;9.00;6.00;;;;;;;14.41;65.69;101345.91;109466;1259;24213;-76
2022/08/11 02:09:54;;;;;;;8.30;6.00;;;;;;;14.34;65.76;101345.33;110174;1258;22467;-77
2022/08/11 02:12:26;;;;;;;8.60;6.20;;;;;;;14.31;66.09;101343.75;110198;1253;23571;-78
2022/08/11 02:15:45;;;;;;;11.10;5.90;;;;;;;14.30;66.07;101342.78;110744;1253;22569;-78
2022/08/11 02:23:38;;;;;;;10.70;6.10;;;;;;;14.26;66.27;101345.71;110570;1253;24425;-77
2022/08/11 02:24:40;;;;;;;14.40;6.40;;;;;;;14.18;66.44;101346.45;110568;1252;23768;-79
2022/08/11 02:27:26;;;;;;;14.60;6.80;;;;;;;14.17;66.46;101346.91;110599;1253;23569;-77
2022/08/11 02:30:06;;;;;;;14.70;12.00;;;;;;;14.15;66.53;101342.53;110479;1253;22005;-77
2022/08/11 02:33:23;;;;;;;11.10;6.70;;;;;;;14.12;66.52;101341.73;109758;1261;21981;-76
2022/08/11 02:36:21;;;;;;;13.70;7.70;;;;;;;14.08;66.64;101342.89;109166;1266;22061;-77
2022/08/11 02:39:08;;;;;;;12.50;5.80;;;;;;;14.03;66.57;101343.20;109079;1269;22004;-77
2022/08/11 02:42:21;;;;;;;10.70;6.70;;;;;;;14.02;66.59;101342.83;109155;1267;22216;-77
2022/08/11 02:45:53;;;;;;;9.00;6.00;;;;;;;13.96;66.82;101345.25;109164;1267;23048;-77
2022/08/11 02:52:24;;;;;;;11.50;6.30;;;;;;;13.88;67.13;101338.14;109338;1263;22097;-77
2022/08/11 02:55:39;;;;;;;11.50;8.10;;;;;;;13.85;67.29;101339.00;109275;1264;21977;-77
2022/08/11 03:02:26;;;;;;;10.40;7.00;;;;;;;13.77;67.46;101341.58;109297;1265;22111;-77
2022/08/11 03:06:30;;;;;;;9.50;7.50;;;;;;;13.76;67.45;101341.74;108820;1270;23142;-78
2022/08/11 03:09:26;;;;;;;8.90;6.20;;;;;;;13.69;67.50;101344.64;107601;1288;22022;-77
2022/08/11 03:19:35;;;;;;;12.60;7.20;;;;;;;13.63;67.86;101350.50;107961;1285;22143;-77
2022/08/11 03:22:25;;;;;;;11.30;9.20;;;;;;;13.62;67.95;101349.93;107946;1285;21997;-76
2022/08/11 03:25:33;;;;;;;9.90;6.60;;;;;;;13.63;68.09;101350.89;108012;1280;22192;-76
2022/08/11 03:28:42;;;;;;;12.40;8.10;;;;;;;13.62;68.08;101353.30;108083;1281;22203;-76
2022/08/11 03:32:00;;;;;;;16.60;8.10;;;;;;;13.60;68.04;101355.30;108207;1280;22006;-77
2022/08/11 03:34:36;;;;;;;12.20;8.70;;;;;;;13.59;68.19;101362.50;108110;1280;23702;-77
2022/08/11 03:37:49;;;;;;;8.90;7.90;;;;;;;13.59;68.20;101361.94;108340;1276;22315;-77
2022/08/11 03:43:56;;;;;;;24.70;9.50;;;;;;;13.56;68.31;101356.95;109729;1260;24293;-77
2022/08/11 03:47:08;;;;;;;17.00;8.20;;;;;;;13.55;68.43;101360.13;110375;1253;21965;-77
2022/08/11 03:50:07;;;;;;;11.10;9.10;;;;;;;13.52;68.51;101364.47;110103;1260;21971;-77
2022/08/11 03:53:36;;;;;;;13.70;8.00;;;;;;;13.51;68.60;101366.50;110157;1258;21960;-77
2022/08/11 03:56:27;;;;;;;13.10;11.80;;;;;;;13.50;68.80;101361.17;109058;1267;21983;-76
2022/08/11 03:59:16;;;;;;;13.00;10.40;;;;;;;13.51;68.77;101361.45;109027;1268;23698;-75
2022/08/11 04:02:49;;;;;;;11.50;6.80;;;;;;;13.51;68.89;101358.40;109072;1270;23110;-76
2022/08/11 04:05:47;;;;;;;13.50;9.00;;;;;;;13.50;68.97;101358.63;108679;1273;23156;-78
2022/08/11 04:09:00;;;;;;;13.40;7.80;;;;;;;13.52;69.09;101357.60;108006;1281;22971;-77
2022/08/11 04:12:04;;;;;;;13.10;7.10;;;;;;;13.55;69.27;101356.17;108051;1281;22012;-77
2022/08/11 04:18:38;;;;;;;17.40;11.40;;;;;;;13.67;69.49;101360.42;108438;1279;22151;-79
2022/08/11 04:21:35;;;;;;;25.40;9.50;;;;;;;13.73;69.69;101357.98;107984;1283;22371;-77
2022/08/11 04:24:40;;;;;;;29.30;9.70;;;;;;;13.81;69.72;101359.65;108028;1281;23732;-77
2022/08/11 04:27:41;;;;;;;19.20;8.40;;;;;;;13.89;69.61;101359.13;108076;1281;24363;-76
2022/08/11 04:31:01;;;;;;;18.40;8.40;;;;;;;13.98;69.43;101358.13;107821;1285;22008;-77
2022/08/11 04:34:23;;;;;;;54.40;13.50;;;;;;;14.05;69.46;101358.23;107578;1288;22004;-77
2022/08/11 04:37:35;;;;;;;54.40;12.20;;;;;;;14.14;69.40;101358.68;107673;1288;22922;-78
2022/08/11 04:40:14;;;;;;;36.10;12.80;;;;;;;14.26;69.34;101358.45;107993;1285;22008;-80
2022/08/11 04:43:29;;;;;;;46.80;14.50;;;;;;;14.36;69.26;101356.03;107672;1288;22451;-78
2022/08/11 04:46:56;;;;;;;27.70;21.20;;;;;;;14.48;69.28;101358.36;108022;1282;22009;-79
2022/08/11 05:07:44;;;;;;;23.20;13.10;;;;;;;15.37;68.25;101379.30;107904;1289;23705;-78
2022/08/11 05:11:07;;;;;;;17.00;12.10;;;;;;;15.49;67.87;101377.16;107915;1286;23042;-77
2022/08/11 05:35:07;;;;;;;14.00;9.00;;;;;;;17.25;65.36;101390.02;108810;1270;24030;-77
2022/08/11 05:58:43;;;;;;;15.80;7.40;;;;;;;19.76;60.31;101406.75;110142;1258;23708;-79
2022/08/11 06:01:32;;;;;;;9.20;5.50;;;;;;;20.21;59.14;101402.41;110618;1253;24290;-79
2022/08/11 06:04:12;;;;;;;7.20;5.00;;;;;;;20.62;57.89;101397.91;110604;1253;22420;-78
2022/08/11 06:06:54;;;;;;;12.60;6.00;;;;;;;21.04;56.53;101396.42;110327;1257;22909;-77
2022/08/11 06:09:33;;;;;;;9.90;4.80;;;;;;;21.47;55.55;101400.65;109615;1264;22969;-77
2022/08/11 06:12:16;;;;;;;;;;;;;;;21.99;54.44;101400.61;109186;1267;21972;-78
2022/08/11 06:14:46;;;;;;;8.70;5.00;;;;;;;22.42;53.75;101399.14;108966;1267;21990;-77
2022/08/11 06:17:27;;;;;;;9.00;4.70;;;;;;;22.91;53.05;101401.41;109003;1269;22060;-77
2022/08/11 06:20:11;;;;;;;7.70;3.90;;;;;;;23.39;51.13;101397.98;109192;1267;21996;-77
2022/08/11 06:22:46;;;;;;;10.70;5.30;;;;;;;23.72;50.00;101397.89;108969;1270;22009;-79
2022/08/11 06:25:35;;;;;;;6.30;4.50;;;;;;;24.14;49.18;101401.61;109100;1264;21979;-77
2022/08/11 06:28:05;;;;;;;;;;;;;;;24.58;48.15;101400.14;109894;1257;23771;-77
2022/08/11 06:30:39;;;;;;;8.40;3.50;;;;;;;24.84;46.60;101398.13;109558;1261;21982;-78
2022/08/11 06:33:35;;;;;;;4.60;3.60;;;;;;;25.06;46.02;101401.91;110166;1260;21973;-77
2022/08/11 06:36:20;;;;;;;6.40;3.50;;;;;;;25.35;45.50;101394.23;109737;1258;21992;-77
2022/08/11 06:39:12;;;;;;;8.70;3.30;;;;;;;25.72;44.85;101395.25;109446;1263;21984;-77
2022/08/11 06:42:09;;;;;;;6.20;3.50;;;;;;;25.97;43.28;101392.45;109578;1261;22100;-76
2022/08/11 06:45:10;;;;;;;6.60;2.50;;;;;;;26.14;42.70;101392.36;109384;1263;21940;-77
2022/08/11 06:47:48;;;;;;;6.80;2.90;;;;;;;26.32;42.16;101389.11;109458;1263;23595;-78
2022/08/11 06:53:11;;;;;;;4.30;2.40;;;;;;;26.90;41.16;101385.14;110046;1257;21977;-78
2022/08/11 07:01:54;;;;;;;4.60;1.80;;;;;;;27.39;39.17;101378.48;110465;1254;21975;-78
2022/08/11 07:05:17;;;;;;;3.20;2.00;;;;;;;27.64;38.15;101383.94;110732;1254;21968;-77
2022/08/11 07:15:41;;;;;;;2.70;1.80;;;;;;;28.14;36.66;101379.30;109536;1264;22063;-76
2022/08/11 07:31:45;;;;;;;6.40;1.60;;;;;;;28.77;34.91;101371.95;108776;1270;21994;-77
2022/08/11 07:34:22;;;;;;;4.60;2.00;;;;;;;28.97;34.40;101366.44;108767;1270;23054;-76
2022/08/11 07:36:56;;;;;;;4.50;1.60;;;;;;;29.15;34.24;101365.22;108481;1276;22050;-76
2022/08/11 07:39:32;;;;;;;4.90;1.70;;;;;;;29.33;33.60;101367.61;108678;1270;22004;-77
2022/08/11 07:42:10;;;;;;;4.30;1.80;;;;;;;29.47;33.17;101370.23;108811;1270;21986;-76
2022/08/11 07:53:09;;;;;;;6.70;1.60;;;;;;;29.93;31.00;101367.54;110219;1257;23676;-78
2022/08/11 07:55:40;;;;;;;5.90;1.80;;;;;;;29.93;31.49;101366.23;110476;1254;21982;-75
2022/08/11 08:18:22;;;;;;;3.00;1.10;;;;;;;30.38;30.09;101365.50;110030;1260;23671;-74
2022/08/11 08:21:10;;;;;;;5.30;1.50;;;;;;;30.46;29.60;101369.18;110004;1260;22064;-76
2022/08/11 08:23:45;;;;;;;3.00;1.30;;;;;;;30.39;29.08;101370.08;110122;1260;21978;-75
2022/08/11 08:31:55;;;;;;;4.50;1.40;;;;;;;30.33;29.11;101358.54;110742;1254;21962;-75
2022/08/11 08:34:25;;;;;;;2.60;1.60;;;;;;;30.35;29.13;101360.48;109847;1260;23727;-75
2022/08/11 08:36:55;;;;;;;5.50;1.10;;;;;;;30.42;29.42;101358.19;110335;1257;22047;-75
2022/08/11 08:39:24;;;;;;;6.60;1.40;;;;;;;30.54;28.79;101355.70;109639;1260;22003;-74
2022/08/11 08:41:58;;;;;;;2.70;1.10;;;;;;;30.70;28.96;101355.71;109661;1261;22120;-75
2022/08/11 08:44:30;;;;;;;3.40;1.40;;;;;;;30.84;28.46;101356.81;109614;1263;22079;-75
2022/08/11 08:47:19;;;;;;;4.10;0.90;;;;;;;30.98;28.12;101358.34;109707;1261;21968;-74
2022/08/11 08:53:35;;;;;;;3.50;1.00;;;;;;;30.83;27.29;101353.73;109485;1265;22769;-78
2022/08/11 08:56:08;;;;;;;2.80;1.00;;;;;;;30.78;27.74;101354.38;109311;1265;23042;-78
2022/08/11 08:58:40;;;;;;;5.40;1.10;;;;;;;30.90;27.86;101350.63;109679;1258;21984;-74
2022/08/11 09:01:14;;;;;;;4.50;1.40;;;;;;;31.04;27.21;101347.02;109987;1258;22701;-75
2022/08/11 09:03:43;;;;;;;2.30;0.80;;;;;;;31.07;27.34;101350.32;110103;1259;23868;-75
2022/08/11 09:06:33;;;;;;;1.50;0.70;;;;;;;31.05;26.77;101354.80;110168;1257;22000;-75
2022/08/11 09:09:03;;;;;;;4.00;1.30;;;;;;;30.96;26.43;101356.75;110104;1258;22395;-75
2022/08/11 09:11:54;;;;;;;3.40;1.20;;;;;;;30.94;26.40;101359.27;110087;1258;22734;-76
2022/08/11 09:17:23;;;;;;;3.40;1.30;;;;;;;30.57;26.52;101349.25;110234;1257;21961;-75
2022/08/11 09:20:07;;;;;;;7.00;1.40;;;;;;;30.45;26.72;101348.35;110058;1259;23133;-74
2022/08/11 09:28:43;;;;;;;1.90;0.90;;;;;;;30.19;26.96;101339.15;110693;1254;22188;-74
2022/08/11 09:31:14;;;;;;;3.00;1.00;;;;;;;30.35;26.91;101330.77;110022;1260;23068;-74
2022/08/11 09:33:43;;;;;;;;;;;;;;;30.55;26.58;101332.13;109793;1260;21951;-74
2022/08/11 09:42:15;;;;;;;3.40;1.00;;;;;;;30.76;25.89;101327.16;109426;1263;23036;-74
2022/08/11 09:44:52;;;;;;;5.40;1.40;;;;;;;30.92;25.37;101324.70;108940;1269;23468;-74
2022/08/11 09:47:30;;;;;;;4.00;1.20;;;;;;;30.90;25.07;101321.82;109018;1270;24401;-75
2022/08/11 09:50:02;;;;;;;5.00;0.90;;;;;;;30.73;24.91;101325.05;109257;1265;23596;-76
2022/08/11 09:52:34;;;;;;;;;;;;;;;30.60;25.44;101321.32;109612;1262;23134;-76
2022/08/11 09:55:09;;;;;;;1.90;1.00;;;;;;;30.57;25.49;101325.15;108568;1263;1542471;-75
2022/08/11 10:00:39;;;;;;;4.00;1.20;;;;;;;30.49;25.78;101323.76;109304;1263;21978;-75
2022/08/11 10:03:25;;;;;;;3.40;1.00;;;;;;;30.55;25.82;101322.98;109879;1257;21971;-75
2022/08/11 10:09:05;;;;;;;2.10;1.10;;;;;;;30.13;24.97;101320.38;109740;1263;24229;-75
2022/08/11 10:11:36;;;;;;;1.70;0.80;;;;;;;29.62;25.97;101315.05;109737;1261;22298;-75
2022/08/11 10:17:07;;;;;;;5.90;1.40;;;;;;;29.76;26.80;101297.05;109807;1263;21986;-74
2022/08/11 10:19:37;;;;;;;7.80;1.40;;;;;;;29.91;26.70;101299.88;109130;1267;23049;-74
2022/08/11 10:27:57;;;;;;;3.90;1.20;;;;;;;29.78;25.91;101299.35;109026;1270;23086;-75
2022/08/11 10:36:49;;;;;;;4.70;1.00;;;;;;;29.67;26.33;101288.18;109585;1261;23055;-74
2022/08/11 10:39:21;;;;;;;4.70;1.20;;;;;;;29.66;25.90;101288.52;109988;1260;23021;-74
2022/08/11 10:45:00;;;;;;;2.50;1.00;;;;;;;29.41;26.22;101287.44;110598;1253;21972;-75
2022/08/11 10:47:33;;;;;;;1.90;0.90;;;;;;;29.27;26.41;101290.47;110922;1249;23594;-75
2022/08/11 10:58:46;;;;;;;3.80;0.90;;;;;;;28.86;26.57;101271.96;110684;1253;22107;-74
2022/08/11 11:01:24;;;;;;;2.20;1.20;;;;;;;28.73;26.92;101273.11;110704;1254;23120;-75
2022/08/11 11:04:00;;;;;;;2.70;1.40;;;;;;;28.51;27.27;101265.00;110823;1253;23817;-75
2022/08/11 11:07:12;;;;;;;2.10;1.00;;;;;;;28.37;27.55;101258.72;110553;1254;21954;-76
2022/08/11 11:10:02;;;;;;;5.20;1.20;;;;;;;28.25;27.48;101259.19;110638;1254;23642;-74
2022/08/11 11:18:38;;;;;;;2.60;1.20;;;;;;;27.79;27.55;101250.86;110782;1254;21978;-74
2022/08/11 11:21:17;;;;;;;8.70;1.60;;;;;;;27.55;28.01;101245.17;110033;1260;21975;-74
2022/08/11 11:24:41;;;;;;;3.10;0.80;;;;;;;27.41;28.54;101242.13;109995;1260;22039;-73
2022/08/11 11:27:33;;;;;;;5.80;1.40;;;;;;;27.35;28.77;101244.05;110031;1260;22075;-73
2022/08/11 11:30:16;;;;;;;4.50;1.10;;;;;;;27.27;28.90;101246.41;109978;1260;21973;-72
2022/08/11 11:33:10;;;;;;;;;;;;;;;27.12;28.77;101244.89;110148;1260;22602;-74
2022/08/11 11:36:36;;;;;;;2.60;1.00;;;;;;;26.86;28.93;101237.79;110208;1260;23577;-75
2022/08/11 11:39:07;;;;;;;1.60;1.00;;;;;;;26.79;29.57;101230.60;108963;1267;21985;-77
2022/08/11 11:41:37;;;;;;;1.50;0.90;;;;;;;26.84;29.79;101225.41;108897;1270;21985;-75
2022/08/11 11:44:10;;;;;;;4.10;1.00;;;;;;;26.89;29.56;101232.44;109098;1267;22103;-75
2022/08/11 11:46:44;;;;;;;2.50;1.30;;;;;;;26.84;29.44;101235.16;108898;1269;23707;-75
2022/08/11 11:49:17;;;;;;;6.70;1.80;;;;;;;26.65;29.54;101231.48;109166;1269;22304;-75
2022/08/11 11:51:48;;;;;;;8.60;1.90;;;;;;;26.44;29.88;101233.10;109163;1267;22023;-74
2022/08/11 11:54:32;;;;;;;4.10;1.40;;;;;;;26.29;30.33;101225.31;109137;1267;21983;-76
2022/08/11 12:02:42;;;;;;;6.30;1.30;;;;;;;26.33;31.03;101211.54;109876;1262;22014;-75
2022/08/11 12:05:13;;;;;;;3.00;1.00;;;;;;;26.41;31.12;101205.97;109542;1262;21975;-75
2022/08/11 12:13:39;;;;;;;5.40;1.00;;;;;;;26.47;30.65;101208.66;109965;1260;21980;-76
2022/08/11 12:13:50;;;;;;;2.80;1.00;;;;;;;26.42;30.48;101203.15;110018;1260;21979;-75
2022/08/11 12:16:22;;;;;;;3.60;1.00;;;;;;;26.40;30.09;101200.86;110039;1251;21971;-75
2022/08/11 12:19:10;;;;;;;3.50;1.10;;;;;;;26.38;29.95;101198.13;109995;1258;23091;-76
2022/08/11 12:27:23;;;;;;;3.20;1.20;;;;;;;26.27;29.62;101183.95;110313;1257;22091;-77
2022/08/11 12:30:07;;;;;;;3.10;1.10;;;;;;;26.24;29.82;101180.52;109292;1263;23701;-75
2022/08/11 12:32:39;;;;;;;5.00;1.90;;;;;;;26.29;30.10;101177.21;109481;1264;21995;-78
2022/08/11 12:35:10;;;;;;;3.00;1.70;;;;;;;26.39;30.00;101177.61;109693;1264;22113;-78
2022/08/11 12:37:48;;;;;;;4.60;1.30;;;;;;;26.42;29.26;101175.85;109827;1257;23073;-76
2022/08/11 12:46:33;;;;;;;3.10;1.30;;;;;;;26.38;29.26;101155.80;109402;1263;22529;-77
2022/08/11 12:52:10;;;;;;;3.40;1.00;;;;;;;26.48;29.07;101156.71;109690;1263;22808;-77
2022/08/11 12:54:55;;;;;;;4.50;1.20;;;;;;;26.50;29.30;101151.16;109866;1259;24721;-76
2022/08/11 13:06:23;;;;;;;3.10;1.10;;;;;;;26.44;30.19;101153.78;110438;1257;23077;-78
2022/08/11 13:08:57;;;;;;;8.40;1.20;;;;;;;26.43;29.83;101150.08;110213;1257;22007;-78
2022/08/11 13:14:26;;;;;;;3.60;1.00;;;;;;;26.30;29.90;101142.73;110550;1257;21966;-78
2022/08/11 13:19:46;;;;;;;6.50;1.50;;;;;;;26.29;29.89;101129.17;110323;1256;21972;-78
2022/08/11 13:22:20;;;;;;;5.50;1.20;;;;;;;26.32;30.42;101126.17;110947;1253;22444;-76
2022/08/11 13:24:54;;;;;;;2.70;1.00;;;;;;;26.36;30.11;101128.05;110713;1253;21998;-78
2022/08/11 13:27:24;;;;;;;3.30;1.20;;;;;;;26.37;29.75;101131.47;110851;1253;21984;-77
2022/08/11 13:31:09;;;;;;;3.30;0.90;;;;;;;26.33;29.59;101132.98;110714;1254;21969;-79
2022/08/11 13:32:45;;;;;;;4.00;1.00;;;;;;;26.23;29.40;101127.48;110766;1251;23037;-77
2022/08/11 13:35:15;;;;;;;3.50;1.00;;;;;;;26.18;29.69;101112.52;110626;1254;23590;-78
2022/08/11 13:37:47;;;;;;;3.60;1.00;;;;;;;26.20;29.32;101112.76;110608;1251;22644;-77
2022/08/11 13:40:37;;;;;;;3.70;1.20;;;;;;;26.15;28.99;101113.79;110752;1251;23693;-77
2022/08/11 13:43:24;;;;;;;4.10;0.90;;;;;;;26.05;29.13;101113.13;110754;1254;21977;-79
2022/08/11 13:46:17;;;;;;;5.60;1.10;;;;;;;26.00;29.12;101111.28;110728;1254;23849;-77
2022/08/11 13:48:50;;;;;;;3.20;0.90;;;;;;;25.93;29.21;101107.84;110067;1257;21989;-76
2022/08/11 13:51:29;;;;;;;2.90;1.00;;;;;;;25.91;29.56;101103.79;109855;1258;24424;-76
2022/08/11 13:54:09;;;;;;;3.40;1.10;;;;;;;25.93;29.65;101102.52;110239;1258;24169;-77
2022/08/11 13:56:45;;;;;;;3.80;2.80;;;;;;;25.93;29.70;101102.36;109413;1262;23668;-78
2022/08/11 13:59:24;;;;;;;2.70;0.90;;;;;;;25.93;29.70;101101.45;109710;1262;22363;-78
2022/08/11 14:02:07;;;;;;;1.70;0.90;;;;;;;25.89;29.42;101098.48;109848;1262;24123;-76
2022/08/11 14:05:04;;;;;;;2.30;1.00;;;;;;;25.88;29.61;101096.67;109717;1262;21988;-77
2022/08/11 14:07:48;;;;;;;3.60;1.10;;;;;;;25.91;29.80;101089.04;109991;1257;22103;-78
2022/08/11 14:10:21;;;;;;;2.60;1.00;;;;;;;25.95;29.71;101084.60;110077;1258;21975;-76
2022/08/11 14:16:03;;;;;;;6.80;1.70;;;;;;;26.07;29.96;101086.89;110575;1253;22965;-76
2022/08/11 14:18:34;;;;;;;3.40;1.00;;;;;;;26.11;29.98;101089.31;110740;1251;22734;-76
2022/08/11 14:23:54;;;;;;;1.70;0.90;;;;;;;26.13;29.43;101087.56;110713;1251;22041;-78
2022/08/11 14:26:25;;;;;;;2.40;0.90;;;;;;;26.09;29.29;101087.73;110688;1251;21995;-77
2022/08/11 14:29:24;;;;;;;3.30;0.80;;;;;;;26.02;29.02;101084.66;110401;1257;21980;-75
2022/08/11 14:32:02;;;;;;;3.50;1.00;;;;;;;25.97;29.13;101077.29;110298;1257;23594;-75
2022/08/11 14:34:33;;;;;;;4.50;1.10;;;;;;;25.97;29.17;101075.99;110294;1257;22454;-74
2022/08/11 14:37:11;;;;;;;3.40;1.10;;;;;;;26.01;29.46;101072.75;110260;1257;22271;-74
2022/08/11 14:39:51;;;;;;;2.40;0.70;;;;;;;26.07;29.73;101073.46;109853;1263;22092;-78
2022/08/11 14:48:25;;;;;;;4.60;1.30;;;;;;;25.84;29.31;101077.19;110346;1256;22010;-76
2022/08/11 14:50:55;;;;;;;5.60;2.00;;;;;;;25.76;29.53;101076.02;110020;1261;21984;-78
2022/08/11 14:53:26;;;;;;;3.10;0.90;;;;;;;25.71;29.56;101073.36;109701;1262;24639;-78
2022/08/11 14:58:43;;;;;;;6.70;1.70;;;;;;;25.72;30.14;101071.27;109771;1261;22014;-79
2022/08/11 15:04:00;;;;;;;4.90;2.00;;;;;;;25.82;30.74;101068.51;109241;1264;23681;-75
2022/08/11 15:06:50;;;;;;;6.20;1.30;;;;;;;25.81;30.71;101069.90;109502;1263;21977;-75
2022/08/11 15:09:21;;;;;;;6.00;1.10;;;;;;;25.83;30.85;101070.08;109057;1266;23631;-75
2022/08/11 15:12:15;;;;;;;3.40;1.10;;;;;;;25.83;30.56;101068.73;109327;1264;24288;-76
2022/08/11 15:17:58;;;;;;;4.70;2.10;;;;;;;25.75;30.24;101069.79;109369;1262;23599;-75
2022/08/11 15:37:57;;;;;;;7.50;0.90;;;;;;;25.69;31.19;101068.42;110240;1258;24384;-75
2022/08/11 15:46:53;;;;;;;2.10;1.30;;;;;;;25.63;31.06;101081.16;109671;1263;22309;-76
2022/08/11 15:49:33;;;;;;;2.60;1.20;;;;;;;25.63;31.03;101082.08;109567;1262;22365;-77
2022/08/11 15:52:29;;;;;;;3.90;0.90;;;;;;;25.64;31.08;101079.44;110290;1257;23610;-76
2022/08/11 15:55:06;;;;;;;2.70;1.10;;;;;;;25.63;31.16;101079.92;109615;1262;22764;-77
2022/08/11 16:07:10;;;;;;;3.90;0.90;;;;;;;25.85;31.26;101081.85;109688;1263;21990;-76
2022/08/11 16:10:20;;;;;;;6.20;1.30;;;;;;;25.87;31.34;101096.16;109793;1263;21975;-78
2022/08/11 16:19:02;;;;;;;9.40;1.50;;;;;;;25.28;35.02;101116.20;110296;1253;22562;-77
2022/08/11 16:21:35;;;;;;;4.80;0.90;;;;;;;25.00;35.74;101119.94;110650;1253;21984;-78
2022/08/11 16:24:10;;;;;;;10.30;1.20;;;;;;;24.72;36.15;101123.77;110465;1257;21980;-76
2022/08/11 16:27:01;;;;;;;4.30;1.30;;;;;;;24.41;37.03;101123.69;110218;1256;21969;-77
2022/08/11 16:29:46;;;;;;;11.10;1.30;;;;;;;24.15;37.80;101120.61;110221;1257;22116;-78
2022/08/11 16:32:22;;;;;;;4.00;1.00;;;;;;;23.96;38.01;101124.65;110472;1257;22142;-80
2022/08/11 16:40:49;;;;;;;5.90;1.20;;;;;;;23.61;39.67;101113.66;109624;1262;22056;-78
2022/08/11 16:49:09;;;;;;;2.10;1.20;;;;;;;23.39;40.44;101114.80;109722;1263;21980;-77
2022/08/11 16:51:38;;;;;;;5.50;2.00;;;;;;;23.33;40.62;101111.41;109609;1264;22165;-77
2022/08/11 16:54:07;;;;;;;2.30;1.50;;;;;;;23.30;40.80;101108.52;109586;1264;21986;-79
2022/08/11 16:59:12;;;;;;;4.00;2.40;;;;;;;23.28;40.84;101108.48;110091;1258;21987;-76
2022/08/11 16:59:50;;;;;;;3.10;1.10;;;;;;;23.23;40.94;101103.59;109946;1258;21970;-78
2022/08/11 17:14:35;;;;;;;4.90;1.40;;;;;;;23.11;41.79;101081.73;110144;1259;21975;-77
2022/08/11 17:17:12;;;;;;;2.90;1.40;;;;;;;23.15;41.98;101079.17;109328;1267;23057;-77
2022/08/11 17:19:50;;;;;;;3.90;1.00;;;;;;;23.17;41.62;101074.71;109304;1265;21997;-76
2022/08/11 17:25:33;;;;;;;2.90;1.20;;;;;;;23.15;41.66;101069.70;109463;1264;22921;-77
2022/08/11 17:28:22;;;;;;;3.90;1.30;;;;;;;23.12;41.59;101066.38;109619;1263;21992;-78
2022/08/11 17:36:44;;;;;;;2.50;1.50;;;;;;;23.00;41.66;101077.10;110436;1256;21985;-79
2022/08/11 17:39:15;;;;;;;2.00;1.20;;;;;;;22.95;41.60;101080.85;110301;1256;22432;-78
2022/08/11 17:50:21;;;;;;;6.40;1.50;;;;;;;22.70;41.14;101083.70;110300;1256;22444;-77
2022/08/11 18:01:23;;;;;;;2.80;1.20;;;;;;;22.41;41.67;101076.00;109638;1260;22118;-76
2022/08/11 18:03:58;;;;;;;6.20;1.80;;;;;;;22.35;42.05;101076.52;109020;1267;22439;-78
2022/08/11 18:06:33;;;;;;;5.00;1.70;;;;;;;22.29;42.27;101078.80;108601;1275;23247;-77
